createdAt,value
2018-09-19T00:01:48.121Z,98925.50
2018-09-19T00:04:17.300Z,98925.00
2018-09-19T00:06:46.425Z,98928.02
2018-09-19T00:09:15.616Z,98921.34
2018-09-19T00:11:44.765Z,98917.30
2018-09-19T00:14:13.965Z,98923.62
2018-09-19T00:16:43.202Z,98926.37
2018-09-19T00:19:12.327Z,98924.25
2018-09-19T00:21:41.444Z,98922.64
2018-09-19T00:24:10.603Z,98924.61
2018-09-19T00:26:39.741Z,98922.81
2018-09-19T00:29:09.036Z,98922.02
2018-09-19T00:31:38.161Z,98927.44
2018-09-19T00:34:07.282Z,98923.69
2018-09-19T00:36:36.402Z,98924.73
2018-09-19T00:39:07.327Z,98926.37
2018-09-19T00:41:36.493Z,98929.09
2018-09-19T00:44:05.645Z,98928.02
2018-09-19T00:46:34.801Z,98928.65
2018-09-19T00:49:03.941Z,98929.00
2018-09-19T00:51:33.099Z,98928.19
2018-09-19T00:54:02.299Z,98922.87
2018-09-19T00:56:31.425Z,98924.54
2018-09-19T00:59:00.579Z,98921.88
2018-09-19T01:01:30.604Z,98923.00
2018-09-19T01:03:59.714Z,98930.66
2018-09-19T01:06:28.863Z,98929.62
2018-09-19T01:08:58.131Z,98922.12
2018-09-19T01:11:27.397Z,98932.94
2018-09-19T01:13:56.506Z,98924.68
2018-09-19T01:16:25.876Z,98927.43
2018-09-19T01:18:56.577Z,98922.14
2018-09-19T01:21:25.722Z,98927.89
2018-09-19T01:23:55.092Z,98931.52
2018-09-19T01:26:24.217Z,98926.69
2018-09-19T01:28:53.405Z,98921.36
2018-09-19T01:31:22.646Z,98929.77
2018-09-19T01:33:51.780Z,98928.79
2018-09-19T01:36:20.949Z,98929.34
2018-09-19T01:38:50.113Z,98930.72
2018-09-19T01:41:19.299Z,98933.15
2018-09-19T01:43:48.543Z,98932.64
2018-09-19T01:46:17.690Z,98930.25
2018-09-19T01:48:46.863Z,98928.19
2018-09-19T01:51:16.050Z,98934.22
2018-09-19T01:53:45.271Z,98930.80
2018-09-19T01:56:14.417Z,98929.75
2018-09-19T01:58:43.565Z,98926.34
2018-09-19T02:01:12.990Z,98936.92
2018-09-19T02:03:42.160Z,98932.36
2018-09-19T02:06:11.752Z,98938.89
2018-09-19T02:08:40.933Z,98935.95
2018-09-19T02:11:10.110Z,98932.74
2018-09-19T02:13:39.283Z,98939.52
2018-09-19T02:16:08.413Z,98938.44
2018-09-19T02:18:37.590Z,98939.75
2018-09-19T02:21:07.002Z,98933.82
2018-09-19T02:23:36.213Z,98941.91
2018-09-19T02:26:05.504Z,98941.91
2018-09-19T02:28:34.755Z,98945.12
2018-09-19T02:31:03.982Z,98951.03
2018-09-19T02:33:33.120Z,98949.41
2018-09-19T02:36:02.270Z,98949.69
2018-09-19T02:38:31.453Z,98953.13
2018-09-19T02:41:00.668Z,98949.89
2018-09-19T02:43:29.882Z,98948.82
2018-09-19T02:45:59.165Z,98956.86
2018-09-19T02:48:28.610Z,98960.12
2018-09-19T02:50:57.821Z,98954.48
2018-09-19T02:53:27.442Z,98966.36
2018-09-19T02:55:56.596Z,98956.56
2018-09-19T02:58:26.316Z,98963.33
2018-09-19T03:00:55.483Z,98959.09
2018-09-19T03:03:24.634Z,98960.47
2018-09-19T03:05:55.446Z,98958.61
2018-09-19T03:08:24.659Z,98962.41
2018-09-19T03:10:53.876Z,98959.50
2018-09-19T03:13:23.133Z,98957.61
2018-09-19T03:15:52.438Z,98967.05
2018-09-19T03:18:21.695Z,98963.03
2018-09-19T03:20:50.894Z,98960.91
2018-09-19T03:23:20.283Z,98959.28
2018-09-19T03:25:49.463Z,98967.39
2018-09-19T03:28:18.608Z,98960.95
2018-09-19T03:30:48.077Z,98957.44
2018-09-19T03:33:17.194Z,98957.44
2018-09-19T03:35:47.386Z,98952.61
2018-09-19T03:38:16.644Z,98959.59
2018-09-19T03:40:45.824Z,98956.66
2018-09-19T03:43:14.994Z,98957.73
2018-09-19T03:45:44.159Z,98962.59
2018-09-19T03:48:13.323Z,98961.48
2018-09-19T03:50:42.518Z,98966.09
2018-09-19T03:53:12.033Z,98967.45
2018-09-19T03:55:41.248Z,98966.13
2018-09-19T03:58:10.512Z,98974.99
2018-09-19T04:00:40.247Z,98965.84
2018-09-19T04:03:16.145Z,98972.08
2018-09-19T04:05:45.366Z,98972.91
2018-09-19T04:08:14.795Z,98968.88
2018-09-19T04:10:44.044Z,98972.11
2018-09-19T04:13:13.349Z,98973.77
2018-09-19T04:15:42.532Z,98972.15
2018-09-19T04:18:11.706Z,98972.15
2018-09-19T04:20:40.892Z,98968.11
2018-09-19T04:23:10.123Z,98970.02
2018-09-19T04:25:39.529Z,98966.80
2018-09-19T04:28:08.792Z,98974.38
2018-09-19T04:30:39.693Z,98964.17
2018-09-19T04:33:09.218Z,98966.30
2018-09-19T04:35:38.401Z,98968.99
2018-09-19T04:38:07.584Z,98969.27
2018-09-19T04:40:36.745Z,98973.83
2018-09-19T04:43:06.197Z,98980.01
2018-09-19T04:45:35.437Z,98981.63
2018-09-19T04:48:04.666Z,98988.64
2018-09-19T04:50:33.833Z,98990.48
2018-09-19T04:53:02.997Z,98997.20
2018-09-19T04:55:32.272Z,98994.79
2018-09-19T04:58:01.534Z,99005.81
2018-09-19T05:00:31.101Z,98995.00
2018-09-19T05:03:00.345Z,98996.55
2018-09-19T05:05:29.610Z,99002.46
2018-09-19T05:07:58.878Z,99002.41
2018-09-19T05:10:28.058Z,99007.49
2018-09-19T05:12:57.329Z,99014.44
2018-09-19T05:15:26.893Z,99013.28
2018-09-19T05:17:56.105Z,99021.33
2018-09-19T05:20:25.769Z,99017.17
2018-09-19T05:22:54.994Z,99020.88
2018-09-19T05:25:24.297Z,99025.89
2018-09-19T05:27:53.598Z,99032.28
2018-09-19T05:30:22.759Z,99032.23
2018-09-19T05:32:51.990Z,99033.72
2018-09-19T05:35:21.214Z,99033.33
2018-09-19T05:37:50.374Z,99034.27
2018-09-19T05:40:19.566Z,99033.02
2018-09-19T05:42:48.766Z,99033.69
2018-09-19T05:45:18.077Z,99033.53
2018-09-19T05:47:47.288Z,99036.16
2018-09-19T05:50:16.442Z,99035.51
2018-09-19T05:52:45.685Z,99031.64
2018-09-19T05:55:14.948Z,99035.97
2018-09-19T05:57:44.072Z,99040.52
2018-09-19T06:00:13.246Z,99043.22
2018-09-19T06:02:42.556Z,99044.45
2018-09-19T06:05:11.761Z,99053.34
2018-09-19T06:07:40.924Z,99055.14
2018-09-19T06:10:10.145Z,99054.48
2018-09-19T06:12:39.435Z,99062.47
2018-09-19T06:15:08.933Z,99061.25
2018-09-19T06:17:38.254Z,99061.61
2018-09-19T06:20:07.426Z,99059.05
2018-09-19T06:22:36.754Z,99065.14
2018-09-19T06:25:06.171Z,99066.43
2018-09-19T06:27:35.417Z,99069.28
2018-09-19T06:30:05.041Z,99073.28
2018-09-19T06:32:34.225Z,99071.61
2018-09-19T06:35:03.405Z,99078.39
2018-09-19T06:37:32.605Z,99061.69
2018-09-19T06:40:02.379Z,99080.48
2018-09-19T06:42:31.497Z,99088.02
2018-09-19T06:45:00.759Z,99093.66
2018-09-19T06:47:29.964Z,99091.98
2018-09-19T06:49:59.117Z,99096.55
2018-09-19T06:52:28.426Z,99096.98
2018-09-19T06:54:57.574Z,99098.19
2018-09-19T06:57:28.296Z,99108.39
2018-09-19T06:59:57.463Z,99099.45
2018-09-19T07:02:26.671Z,99106.50
2018-09-19T07:04:55.856Z,99104.80
2018-09-19T07:07:25.011Z,99111.81
2018-09-19T07:09:54.175Z,99113.59
2018-09-19T07:12:23.393Z,99112.13
2018-09-19T07:14:52.640Z,99111.73
2018-09-19T07:17:21.900Z,99117.41
2018-09-19T07:19:51.146Z,99114.88
2018-09-19T07:22:20.484Z,99117.70
2018-09-19T07:24:49.680Z,99122.67
2018-09-19T07:27:18.946Z,99128.85
2018-09-19T07:29:48.186Z,99132.42
2018-09-19T07:32:17.376Z,99128.21
2018-09-19T07:34:46.738Z,99133.16
2018-09-19T07:37:16.153Z,99143.97
2018-09-19T07:39:45.673Z,99143.78
2018-09-19T07:42:15.030Z,99142.55
2018-09-19T07:44:44.473Z,99149.57
2018-09-19T07:47:13.672Z,99144.59
2018-09-19T07:49:42.886Z,99151.19
2018-09-19T07:52:11.979Z,99150.72
2018-09-19T07:54:41.227Z,99152.31
2018-09-19T07:57:10.440Z,99152.56
2018-09-19T07:59:39.608Z,99149.70
2018-09-19T08:02:08.850Z,99152.83
2018-09-19T08:04:38.145Z,99156.51
2018-09-19T08:07:07.585Z,99156.40
2018-09-19T08:09:36.792Z,99155.04
2018-09-19T08:12:05.952Z,99154.89
2018-09-19T08:14:35.144Z,99157.68
2018-09-19T08:17:04.516Z,99164.66
2018-09-19T08:19:33.736Z,99164.80
2018-09-19T08:22:02.959Z,99167.27
2018-09-19T08:24:32.156Z,99164.42
2018-09-19T08:27:01.301Z,99167.66
2018-09-19T08:29:30.438Z,99164.33
2018-09-19T08:31:59.693Z,99166.17
2018-09-19T08:34:28.937Z,99162.80
2018-09-19T08:36:58.125Z,99158.17
2018-09-19T08:39:27.281Z,99162.11
2018-09-19T08:41:56.528Z,99156.79
2018-09-19T08:44:26.115Z,99165.61
2018-09-19T08:46:55.854Z,99153.83
2018-09-19T08:49:25.270Z,99150.47
2018-09-19T08:51:54.597Z,99147.49
2018-09-19T08:54:23.907Z,99155.13
2018-09-19T08:56:53.204Z,99161.36
2018-09-19T08:59:22.723Z,99161.78
2018-09-19T09:01:51.890Z,99167.06
2018-09-19T09:04:21.152Z,99162.67
2018-09-19T09:06:50.365Z,99162.65
2018-09-19T09:09:19.596Z,99159.80
2018-09-19T09:11:48.854Z,99157.27
2018-09-19T09:14:18.301Z,99157.39
2018-09-19T09:16:47.821Z,99158.22
2018-09-19T09:19:17.078Z,99155.52
2018-09-19T09:21:46.346Z,99161.08
2018-09-19T09:24:15.723Z,99154.44
2018-09-19T09:26:44.898Z,99152.05
2018-09-19T09:29:14.073Z,99151.52
2018-09-19T09:31:43.536Z,99152.66
2018-09-19T09:34:12.748Z,99154.03
2018-09-19T09:36:42.004Z,99154.23
2018-09-19T09:39:11.415Z,99149.78
2018-09-19T09:41:40.098Z,99148.01
2018-09-19T09:44:09.276Z,99146.56
2018-09-19T09:46:38.914Z,99141.66
2018-09-19T09:49:08.474Z,99143.91
2018-09-19T09:51:37.757Z,99142.89
2018-09-19T09:54:07.235Z,99138.33
2018-09-19T09:56:36.420Z,99140.47
2018-09-19T09:59:05.644Z,99138.97
2018-09-19T10:01:35.229Z,99138.86
2018-09-19T10:04:04.521Z,99134.93
2018-09-19T10:06:33.768Z,99134.98
2018-09-19T10:09:03.431Z,99129.00
2018-09-19T10:11:33.786Z,99138.16
2018-09-19T10:14:03.378Z,99132.00
2018-09-19T10:16:33.072Z,99128.20
2018-09-19T10:19:02.366Z,99121.58
2018-09-19T10:21:32.075Z,99120.41
2018-09-19T10:24:01.586Z,99114.30
2018-09-19T10:26:30.857Z,99121.85
2018-09-19T10:28:59.940Z,99117.39
2018-09-19T10:31:29.500Z,99119.79
2018-09-19T10:33:59.225Z,99108.63
2018-09-19T10:36:28.383Z,99110.05
2018-09-19T10:38:57.950Z,99110.48
2018-09-19T10:41:27.228Z,99110.55
2018-09-19T10:43:56.498Z,99109.66
2018-09-19T10:46:25.997Z,99105.81
2018-09-19T10:48:55.200Z,99103.52
2018-09-19T10:51:24.424Z,99093.05
2018-09-19T10:53:53.830Z,99094.94
2018-09-19T10:56:23.008Z,99092.62
2018-09-19T10:58:52.187Z,99093.55
2018-09-19T11:01:21.664Z,99093.33
2018-09-19T11:03:50.934Z,99100.05
2018-09-19T11:06:20.197Z,99095.93
2018-09-19T11:08:49.656Z,99097.62
2018-09-19T11:11:18.805Z,99096.01
2018-09-19T11:13:48.022Z,99086.91
2018-09-19T11:16:17.421Z,99081.46
2018-09-19T11:18:46.666Z,99075.73
2018-09-19T11:21:15.842Z,99074.48
2018-09-19T11:23:45.085Z,99084.40
2018-09-19T11:26:14.293Z,99077.73
2018-09-19T11:28:43.509Z,99079.59
2018-09-19T11:31:12.846Z,99072.69
2018-09-19T11:33:42.192Z,99072.45
2018-09-19T11:36:11.493Z,99075.23
2018-09-19T11:38:40.661Z,99071.13
2018-09-19T11:41:10.112Z,99077.03
2018-09-19T11:43:39.545Z,99074.33
2018-09-19T11:46:08.665Z,99074.58
2018-09-19T11:48:37.882Z,99073.19
2018-09-19T11:51:07.367Z,99072.73
2018-09-19T11:53:36.700Z,99071.56
2018-09-19T11:56:05.959Z,99063.60
2018-09-19T11:58:35.126Z,99056.50
2018-09-19T12:01:04.321Z,99057.59
2018-09-19T12:03:33.493Z,99054.77
2018-09-19T12:06:02.692Z,99050.21
2018-09-19T12:08:32.960Z,99059.77
2018-09-19T12:11:02.233Z,99061.23
2018-09-19T12:13:31.549Z,99057.55
2018-09-19T12:16:00.692Z,99059.05
2018-09-19T12:18:29.854Z,99058.88
2018-09-19T12:20:59.582Z,99057.78
2018-09-19T12:23:28.904Z,99051.62
2018-09-19T12:25:58.325Z,99055.11
2018-09-19T12:28:27.554Z,99062.02
2018-09-19T12:30:56.700Z,99061.41
2018-09-19T12:33:26.136Z,99060.59
2018-09-19T12:35:55.285Z,99048.95
2018-09-19T12:38:24.586Z,99051.59
2018-09-19T12:40:55.295Z,99059.73
2018-09-19T12:43:24.564Z,99059.48
2018-09-19T12:45:54.175Z,99054.89
2018-09-19T12:48:23.463Z,99056.24
2018-09-19T12:50:52.985Z,99054.32
2018-09-19T12:53:23.896Z,99047.72
2018-09-19T12:55:54.057Z,99046.91
2018-09-19T12:58:23.341Z,99048.79
2018-09-19T13:00:52.946Z,99042.06
2018-09-19T13:03:22.282Z,99037.84
2018-09-19T13:05:51.621Z,99041.12
2018-09-19T13:08:20.813Z,99049.78
2018-09-19T13:10:51.729Z,99034.34
2018-09-19T13:13:20.910Z,99048.76
2018-09-19T13:15:50.232Z,99045.55
2018-09-19T13:18:19.424Z,99047.97
2018-09-19T13:20:48.639Z,99044.85
2018-09-19T13:23:17.858Z,99043.55
2018-09-19T13:25:47.196Z,99043.59
2018-09-19T13:28:16.479Z,99037.64
2018-09-19T13:30:45.809Z,99036.93
2018-09-19T13:33:15.041Z,99044.02
2018-09-19T13:35:44.200Z,99038.44
2018-09-19T13:38:13.506Z,99037.41
2018-09-19T13:40:42.712Z,99036.94
2018-09-19T13:43:12.013Z,99033.05
2018-09-19T13:45:41.278Z,99021.92
2018-09-19T13:48:10.601Z,99030.03
2018-09-19T13:50:59.485Z,99031.14
2018-09-19T13:53:28.788Z,99036.85
2018-09-19T13:55:58.000Z,99033.20
2018-09-19T13:58:27.318Z,99038.80
2018-09-19T14:00:56.508Z,99036.89
2018-09-19T14:03:25.759Z,99038.19
2018-09-19T14:05:55.049Z,99036.95
2018-09-19T14:08:24.366Z,99037.05
2018-09-19T14:10:53.603Z,99030.80
2018-09-19T14:13:22.884Z,99033.66
2018-09-19T14:15:52.441Z,99035.02
2018-09-19T14:18:21.640Z,99027.14
2018-09-19T14:20:51.070Z,99028.50
2018-09-19T14:23:20.359Z,99031.48
2018-09-19T14:25:49.608Z,99036.72
2018-09-19T14:28:18.945Z,99047.22
2018-09-19T14:30:48.360Z,99031.48
2018-09-19T14:33:17.772Z,99033.84
2018-09-19T14:35:47.009Z,99032.11
2018-09-19T14:38:16.445Z,99026.44
2018-09-19T14:40:45.637Z,99026.56
2018-09-19T14:43:14.972Z,99036.39
2018-09-19T14:45:44.272Z,99026.70
2018-09-19T14:48:13.517Z,99027.83
2018-09-19T14:50:42.674Z,99025.20
2018-09-19T14:53:11.917Z,99026.45
2018-09-19T14:55:41.095Z,99030.56
2018-09-19T14:58:10.476Z,99020.98
2018-09-19T15:00:39.821Z,99026.58
2018-09-19T15:03:09.530Z,99012.53
2018-09-19T15:05:38.726Z,99006.73
2018-09-19T15:08:07.885Z,99008.45
2018-09-19T15:10:37.244Z,99003.66
2018-09-19T15:13:07.037Z,99004.00
2018-09-19T15:15:36.313Z,99005.83
2018-09-19T15:18:05.784Z,99007.75
2018-09-19T15:20:34.962Z,99007.47
2018-09-19T15:23:04.373Z,99008.38
2018-09-19T15:25:33.522Z,99002.20
2018-09-19T15:28:03.001Z,99005.06
2018-09-19T15:30:32.229Z,99002.22
2018-09-19T15:33:01.459Z,98999.70
2018-09-19T15:35:30.985Z,99001.27
2018-09-19T15:38:00.133Z,99001.26
2018-09-19T15:40:30.165Z,99006.00
2018-09-19T15:42:59.423Z,99014.17
2018-09-19T15:45:29.028Z,99012.32
2018-09-19T15:47:58.259Z,99013.34
2018-09-19T15:50:27.401Z,99004.83
2018-09-19T15:52:56.528Z,99001.64
2018-09-19T15:55:25.713Z,99007.36
2018-09-19T15:57:54.894Z,99008.09
2018-09-19T16:00:24.210Z,99005.84
2018-09-19T16:02:53.495Z,99004.38
2018-09-19T16:05:22.729Z,99003.18
2018-09-19T16:07:51.917Z,99007.02
2018-09-19T16:10:21.066Z,99002.88
2018-09-19T16:12:50.259Z,99004.25
2018-09-19T16:15:19.420Z,98999.41
2018-09-19T16:17:48.549Z,99007.30
2018-09-19T16:20:17.774Z,99001.55
2018-09-19T16:22:46.935Z,99008.30
2018-09-19T16:25:16.449Z,99014.02
2018-09-19T16:27:45.631Z,99011.23
2018-09-19T16:30:14.761Z,99003.25
2018-09-19T16:32:43.953Z,99008.70
2018-09-19T16:35:13.370Z,99004.75
2018-09-19T16:37:42.534Z,99005.13
2018-09-19T16:40:11.779Z,99008.45
2018-09-19T16:42:41.046Z,99007.36
2018-09-19T16:45:10.190Z,99010.58
2018-09-19T16:47:39.619Z,99012.84
2018-09-19T16:50:08.857Z,99013.11
2018-09-19T16:52:39.584Z,99018.11
2018-09-19T16:55:09.240Z,99017.79
2018-09-19T16:57:38.434Z,99023.11
2018-09-19T17:00:08.345Z,99025.51
2018-09-19T17:02:37.603Z,99031.29
2018-09-19T17:05:07.084Z,99038.36
2018-09-19T17:07:36.239Z,99033.80
2018-09-19T17:10:05.574Z,99038.75
2018-09-19T17:12:34.805Z,99045.63
2018-09-19T17:15:04.184Z,99042.95
2018-09-19T17:17:33.435Z,99048.37
2018-09-19T17:20:02.627Z,99049.95
2018-09-19T17:22:31.938Z,99048.83
2018-09-19T17:25:01.134Z,99054.27
2018-09-19T17:27:30.296Z,99058.53
2018-09-19T17:30:00.009Z,99059.30
2018-09-19T17:32:29.257Z,99051.91
2018-09-19T17:34:58.482Z,99058.91
2018-09-19T17:37:28.284Z,99053.11
2018-09-19T17:39:57.504Z,99057.39
2018-09-19T17:42:26.875Z,99061.34
2018-09-19T17:44:56.043Z,99066.66
2018-09-19T17:47:25.487Z,99068.14
2018-09-19T17:49:54.692Z,99062.69
2018-09-19T17:52:23.874Z,99069.73
2018-09-19T17:54:53.645Z,99077.00
2018-09-19T17:57:23.245Z,99079.84
2018-09-19T17:59:52.457Z,99083.28
2018-09-19T18:02:21.758Z,99083.95
2018-09-19T18:04:50.986Z,99085.11
2018-09-19T18:07:20.285Z,99084.63
2018-09-19T18:09:50.518Z,99079.54
2018-09-19T18:12:19.703Z,99090.17
2018-09-19T18:14:49.004Z,99097.84
2018-09-19T18:17:18.673Z,99096.32
2018-09-19T18:19:48.027Z,99107.02
2018-09-19T18:22:17.198Z,99107.91
2018-09-19T18:24:46.374Z,99101.30
2018-09-19T18:27:15.625Z,99107.91
2018-09-19T18:29:44.688Z,99111.43
2018-09-19T18:32:13.908Z,99111.27
2018-09-19T18:34:43.025Z,99113.55
2018-09-19T18:37:12.131Z,99112.84
2018-09-19T18:39:41.318Z,99121.30
2018-09-19T18:42:10.466Z,99118.41
2018-09-19T18:44:39.614Z,99120.31
2018-09-19T18:47:09.097Z,99126.78
2018-09-19T18:49:38.253Z,99122.50
2018-09-19T18:52:07.438Z,99125.31
2018-09-19T18:54:36.717Z,99126.50
2018-09-19T18:57:05.879Z,99130.66
2018-09-19T18:59:35.089Z,99132.11
2018-09-19T19:02:04.573Z,99122.98
2018-09-19T19:04:33.758Z,99118.75
2018-09-19T19:07:02.962Z,99125.86
2018-09-19T19:09:32.479Z,99127.52
2018-09-19T19:12:02.256Z,99122.97
2018-09-19T19:14:31.445Z,99126.27
2018-09-19T19:17:00.683Z,99127.41
2018-09-19T19:19:29.984Z,99121.22
2018-09-19T19:21:59.190Z,99121.81
2018-09-19T19:24:28.353Z,99121.95
2018-09-19T19:26:57.873Z,99124.71
2018-09-19T19:29:27.014Z,99119.34
2018-09-19T19:31:56.312Z,99113.97
2018-09-19T19:34:25.490Z,99120.31
2018-09-19T19:36:54.631Z,99112.59
2018-09-19T19:39:24.137Z,99112.68
2018-09-19T19:41:53.288Z,99112.22
2018-09-19T19:44:23.506Z,99112.61
2018-09-19T19:46:52.681Z,99107.64
2018-09-19T19:49:21.919Z,99111.00
2018-09-19T19:51:51.077Z,99107.59
2018-09-19T19:54:20.315Z,99107.38
2018-09-19T19:56:49.561Z,99117.14
2018-09-19T19:59:18.753Z,99114.98
2018-09-19T20:01:48.016Z,99120.66
2018-09-19T20:04:17.184Z,99120.19
2018-09-19T20:06:46.394Z,99118.06
2018-09-19T20:09:15.581Z,99117.79
2018-09-19T20:11:44.778Z,99118.36
2018-09-19T20:14:13.895Z,99119.14
2018-09-19T20:16:43.466Z,99122.69
2018-09-19T20:19:13.022Z,99118.37
2018-09-19T20:21:42.188Z,99117.86
2018-09-19T20:24:11.457Z,99121.41
2018-09-19T20:26:40.548Z,99118.44
2018-09-19T20:29:10.355Z,99121.78
2018-09-19T20:31:39.557Z,99118.88
2018-09-19T20:34:08.829Z,99126.77
2018-09-19T20:36:37.965Z,99127.74
2018-09-19T20:39:08.853Z,99124.83
2018-09-19T20:41:38.345Z,99129.72
2018-09-19T20:44:07.642Z,99131.37
2018-09-19T20:46:36.784Z,99132.75
2018-09-19T20:49:06.058Z,99130.34
2018-09-19T20:51:35.442Z,99133.05
2018-09-19T20:54:04.799Z,99139.02
2018-09-19T20:56:34.051Z,99139.64
2018-09-19T20:59:03.328Z,99139.66
2018-09-19T21:01:32.522Z,99136.22
2018-09-19T21:04:01.682Z,99136.00
2018-09-19T21:06:30.934Z,99130.36
2018-09-19T21:09:00.382Z,99129.52
2018-09-19T21:11:29.573Z,99128.50
2018-09-19T21:13:58.741Z,99133.94
2018-09-19T21:16:28.026Z,99129.70
2018-09-19T21:18:57.282Z,99128.92
2018-09-19T21:21:26.434Z,99131.38
2018-09-19T21:23:55.694Z,99127.05
2018-09-19T21:26:24.879Z,99127.35
2018-09-19T21:28:54.097Z,99130.31
2018-09-19T21:31:23.354Z,99124.66
2018-09-19T21:33:52.522Z,99125.52
2018-09-19T21:36:21.680Z,99132.58
2018-09-19T21:38:50.915Z,99133.19
2018-09-19T21:41:20.095Z,99135.95
2018-09-19T21:43:49.326Z,99138.91
2018-09-19T21:46:18.516Z,99136.77
2018-09-19T21:48:47.817Z,99138.36
2018-09-19T21:51:18.553Z,99135.13
2018-09-19T21:53:47.761Z,99136.99
2018-09-19T21:56:16.953Z,99134.05
2018-09-19T21:58:46.210Z,99133.78
2018-09-19T22:01:19.532Z,99141.31
2018-09-19T22:03:48.678Z,99138.34
2018-09-19T22:06:17.882Z,99136.44
2018-09-19T22:08:47.094Z,99144.77
2018-09-19T22:11:16.476Z,99139.37
2018-09-19T22:13:45.741Z,99143.95
2018-09-19T22:16:14.941Z,99138.58
2018-09-19T22:18:44.177Z,99143.16
2018-09-19T22:21:13.389Z,99141.59
2018-09-19T22:23:42.982Z,99141.04
2018-09-19T22:26:12.327Z,99143.76
2018-09-19T22:28:41.505Z,99139.21
2018-09-19T22:31:10.754Z,99137.06
2018-09-19T22:33:39.890Z,99133.84
2018-09-19T22:36:09.048Z,99130.64
2018-09-19T22:38:38.748Z,99133.87
2018-09-19T22:41:08.165Z,99134.67
2018-09-19T22:43:37.317Z,99134.95
2018-09-19T22:46:07.067Z,99128.50
2018-09-19T22:48:36.261Z,99127.45
2018-09-19T22:51:05.562Z,99131.74
2018-09-19T22:53:34.905Z,99130.16
2018-09-19T22:56:04.106Z,99132.03
2018-09-19T22:58:33.321Z,99126.37
2018-09-19T23:01:02.554Z,99126.38
2018-09-19T23:03:31.765Z,99128.02
2018-09-19T23:06:01.420Z,99121.83
2018-09-19T23:08:30.653Z,99132.66
2018-09-19T23:11:00.377Z,99131.61
2018-09-19T23:13:29.606Z,99131.87
2018-09-19T23:15:58.829Z,99132.68
2018-09-19T23:18:28.047Z,99131.33
2018-09-19T23:20:57.348Z,99127.83
2018-09-19T23:23:26.540Z,99125.42
2018-09-19T23:25:56.064Z,99126.25
2018-09-19T23:28:25.274Z,99127.59
2018-09-19T23:30:54.469Z,99131.88
2018-09-19T23:33:23.781Z,99134.33
2018-09-19T23:35:53.026Z,99135.68
2018-09-19T23:38:22.286Z,99137.82
2018-09-19T23:40:51.562Z,99133.52
2018-09-19T23:43:20.805Z,99132.98
2018-09-19T23:45:50.287Z,99137.27
2018-09-19T23:48:19.484Z,99132.98
2018-09-19T23:50:48.704Z,99130.28
2018-09-19T23:53:17.945Z,99130.03
2018-09-19T23:55:47.226Z,99134.61
2018-09-19T23:58:16.416Z,99134.61
